createdAt,value
2023-02-11T00:01:18.821Z,88.58
2023-02-11T00:03:46.521Z,89.59
2023-02-11T00:06:14.146Z,89.25
2023-02-11T00:08:41.804Z,88.90
2023-02-11T00:11:13.763Z,89.31
2023-02-11T00:13:42.211Z,89.27
2023-02-11T00:16:19.107Z,89.30
2023-02-11T00:18:47.204Z,88.62
2023-02-11T00:21:17.543Z,88.57
2023-02-11T00:23:46.185Z,89.59
2023-02-11T00:26:25.303Z,88.79
2023-02-11T00:28:53.530Z,88.91
2023-02-11T00:31:22.942Z,88.47
2023-02-11T00:33:50.894Z,89.48
2023-02-11T00:36:21.579Z,89.34
2023-02-11T00:38:51.192Z,89.36
2023-02-11T00:41:20.060Z,89.18
2023-02-11T00:43:48.650Z,88.88
2023-02-11T00:46:17.193Z,88.85
2023-02-11T00:48:44.951Z,89.13
2023-02-11T00:51:13.232Z,89.02
2023-02-11T00:53:42.532Z,88.99
2023-02-11T00:56:10.652Z,88.57
2023-02-11T00:58:38.415Z,88.54
2023-02-11T01:01:06.484Z,88.43
2023-02-11T01:03:36.369Z,88.47
2023-02-11T01:06:04.957Z,88.52
2023-02-11T01:08:32.594Z,88.38
2023-02-11T01:11:03.792Z,88.75
2023-02-11T01:13:33.723Z,88.04
2023-02-11T01:16:01.930Z,88.49
2023-02-11T01:18:29.565Z,88.32
2023-02-11T01:20:57.184Z,88.34
2023-02-11T01:23:24.852Z,88.27
2023-02-11T01:25:53.206Z,88.49
2023-02-11T01:28:23.935Z,88.21
2023-02-11T01:34:02.794Z,88.22
2023-02-11T01:36:30.440Z,88.06
2023-02-11T01:38:57.939Z,87.30
2023-02-11T01:41:25.672Z,87.87
2023-02-11T01:43:53.199Z,87.71
2023-02-11T01:46:33.399Z,88.46
2023-02-11T01:49:08.666Z,88.18
2023-02-11T01:51:44.146Z,87.88
2023-02-11T01:54:35.771Z,87.25
2023-02-11T01:57:25.254Z,87.65
2023-02-11T02:00:24.663Z,87.50
2023-02-11T02:03:03.316Z,87.97
2023-02-11T02:05:51.378Z,87.33
2023-02-11T02:08:35.501Z,88.20
2023-02-11T02:11:03.842Z,87.29
2023-02-11T02:13:34.097Z,87.45
2023-02-11T02:16:09.667Z,88.22
2023-02-11T02:19:01.095Z,88.10
2023-02-11T02:22:01.020Z,88.09
2023-02-11T02:24:46.629Z,87.44
2023-02-11T02:27:40.364Z,87.43
2023-02-11T02:30:13.740Z,87.90
2023-02-11T02:33:22.359Z,87.98
2023-02-11T02:36:02.969Z,88.20
2023-02-11T02:38:36.661Z,87.26
2023-02-11T02:41:17.425Z,87.90
2023-02-11T02:43:48.569Z,88.01
2023-02-11T02:46:23.379Z,87.91
2023-02-11T02:48:55.770Z,87.44
2023-02-11T02:51:32.202Z,87.42
2023-02-11T02:54:18.574Z,87.47
2023-02-11T02:57:10.332Z,87.93
2023-02-11T02:59:58.328Z,87.78
2023-02-11T03:02:48.021Z,87.63
2023-02-11T03:05:26.057Z,88.04
2023-02-11T03:08:09.988Z,87.90
2023-02-11T03:10:43.372Z,88.23
2023-02-11T03:13:13.032Z,88.24
2023-02-11T03:15:47.919Z,88.00
2023-02-11T03:18:18.934Z,88.58
2023-02-11T03:20:50.777Z,88.04
2023-02-11T03:23:28.930Z,88.13
2023-02-11T03:26:02.972Z,88.48
2023-02-11T03:28:49.341Z,89.05
2023-02-11T03:31:25.722Z,89.01
2023-02-11T03:34:27.690Z,89.48
2023-02-11T03:37:19.176Z,88.83
2023-02-11T03:40:19.394Z,89.09
2023-02-11T03:42:53.735Z,89.24
2023-02-11T03:45:24.490Z,88.96
2023-02-11T03:48:04.531Z,88.87
2023-02-11T03:50:33.884Z,88.97
2023-02-11T03:53:02.933Z,89.09
2023-02-11T03:55:33.760Z,89.42
2023-02-11T03:58:01.578Z,89.92
2023-02-11T04:00:34.532Z,90.10
2023-02-11T04:03:02.881Z,88.90
2023-02-11T04:05:30.637Z,89.34
2023-02-11T04:07:58.638Z,89.53
2023-02-11T04:10:26.587Z,90.29
2023-02-11T04:12:54.147Z,89.54
2023-02-11T04:15:24.178Z,90.06
2023-02-11T04:17:52.456Z,90.00
2023-02-11T04:20:20.085Z,89.76
2023-02-11T04:22:47.704Z,90.29
2023-02-11T04:25:15.324Z,89.58
2023-02-11T04:27:42.982Z,90.10
2023-02-11T04:30:11.356Z,90.54
2023-02-11T04:32:38.992Z,89.90
2023-02-11T04:35:06.946Z,90.52
2023-02-11T04:37:35.317Z,90.28
2023-02-11T04:40:02.957Z,90.51
2023-02-11T04:42:30.641Z,89.85
2023-02-11T04:44:58.215Z,90.14
2023-02-11T04:47:25.873Z,90.27
2023-02-11T04:49:53.435Z,90.13
2023-02-11T04:52:21.038Z,90.24
2023-02-11T04:54:48.564Z,90.20
2023-02-11T04:57:16.154Z,90.36
2023-02-11T04:59:43.713Z,90.29
2023-02-11T05:02:11.386Z,89.63
2023-02-11T05:04:38.970Z,90.38
2023-02-11T05:07:06.787Z,89.38
2023-02-11T05:09:34.343Z,89.47
2023-02-11T05:12:01.946Z,90.21
2023-02-11T05:14:29.516Z,90.76
2023-02-11T05:16:57.135Z,90.31
2023-02-11T05:22:28.750Z,90.36
2023-02-11T05:24:56.329Z,89.86
2023-02-11T05:27:23.874Z,90.01
2023-02-11T05:29:51.437Z,90.67
2023-02-11T05:32:19.046Z,90.70
2023-02-11T05:34:46.657Z,90.95
2023-02-11T05:37:14.293Z,90.11
2023-02-11T05:39:41.974Z,90.63
2023-02-11T05:42:09.558Z,90.96
2023-02-11T05:44:37.185Z,90.19
2023-02-11T05:47:05.043Z,90.62
2023-02-11T05:49:32.670Z,90.93
2023-02-11T05:52:00.294Z,90.73
2023-02-11T05:54:27.824Z,90.82
2023-02-11T05:56:55.386Z,91.14
2023-02-11T05:59:22.991Z,91.06
2023-02-11T06:01:50.528Z,90.19
2023-02-11T06:04:18.165Z,90.32
2023-02-11T06:06:45.831Z,90.22
2023-02-11T06:09:13.424Z,90.50
2023-02-11T06:11:40.944Z,90.38
2023-02-11T06:14:08.918Z,90.67
2023-02-11T06:16:36.939Z,89.79
2023-02-11T06:19:04.632Z,90.32
2023-02-11T06:21:43.301Z,90.39
2023-02-11T06:24:12.771Z,89.89
2023-02-11T06:26:40.647Z,90.65
2023-02-11T06:29:08.417Z,90.87
2023-02-11T06:31:38.198Z,90.38
2023-02-11T06:34:06.354Z,90.55
2023-02-11T06:36:34.108Z,91.29
2023-02-11T06:39:01.897Z,90.87
2023-02-11T06:41:29.657Z,91.14
2023-02-11T06:43:57.256Z,90.90
2023-02-11T06:46:24.928Z,90.96
2023-02-11T06:48:52.713Z,90.97
2023-02-11T06:51:20.256Z,90.74
2023-02-11T06:53:48.254Z,91.01
2023-02-11T06:56:19.248Z,91.10
2023-02-11T06:58:47.790Z,91.32
2023-02-11T07:01:16.538Z,92.01
2023-02-11T07:03:46.322Z,91.82
2023-02-11T07:06:16.876Z,91.63
2023-02-11T07:08:46.033Z,92.02
2023-02-11T07:11:19.347Z,91.47
2023-02-11T07:13:48.256Z,92.37
2023-02-11T07:16:18.735Z,91.70
2023-02-11T07:18:48.623Z,91.95
2023-02-11T07:21:19.592Z,91.73
2023-02-11T07:23:48.752Z,91.75
2023-02-11T07:26:19.583Z,92.49
2023-02-11T07:28:47.151Z,91.71
2023-02-11T07:31:15.967Z,91.80
2023-02-11T07:33:45.953Z,91.62
2023-02-11T07:36:15.717Z,91.43
2023-02-11T07:38:43.962Z,91.29
2023-02-11T07:41:15.120Z,91.77
2023-02-11T07:43:43.601Z,91.32
2023-02-11T07:46:13.935Z,91.07
2023-02-11T07:48:41.634Z,91.67
2023-02-11T07:51:10.807Z,91.80
2023-02-11T07:53:38.626Z,91.29
2023-02-11T07:56:07.522Z,91.05
2023-02-11T07:58:35.351Z,90.59
2023-02-11T08:01:08.229Z,90.33
2023-02-11T08:03:37.041Z,90.98
2023-02-11T08:06:13.758Z,90.43
2023-02-11T08:08:42.136Z,90.75
2023-02-11T08:11:14.634Z,91.09
2023-02-11T08:13:42.874Z,91.07
2023-02-11T08:16:17.369Z,91.83
2023-02-11T08:18:44.969Z,91.07
2023-02-11T08:21:12.562Z,90.94
2023-02-11T08:23:43.075Z,91.11
2023-02-11T08:26:14.277Z,91.32
2023-02-11T08:28:43.826Z,91.32
2023-02-11T08:31:17.159Z,91.76
2023-02-11T08:33:45.506Z,91.83
2023-02-11T08:36:16.808Z,91.99
2023-02-11T08:38:45.201Z,92.15
2023-02-11T08:41:15.019Z,92.25
2023-02-11T08:43:44.321Z,92.17
2023-02-11T08:46:14.952Z,91.62
2023-02-11T08:48:43.015Z,92.07
2023-02-11T08:51:14.834Z,91.48
2023-02-11T08:53:42.859Z,91.82
2023-02-11T08:56:13.392Z,91.03
2023-02-11T08:58:42.724Z,91.44
2023-02-11T09:01:12.394Z,91.28
2023-02-11T09:03:40.450Z,91.83
2023-02-11T09:06:10.947Z,91.74
2023-02-11T09:08:40.804Z,91.31
2023-02-11T09:11:10.302Z,91.09
2023-02-11T09:13:38.052Z,90.98
2023-02-11T09:16:05.975Z,90.58
2023-02-11T09:18:34.120Z,91.20
2023-02-11T09:21:09.261Z,90.57
2023-02-11T09:23:37.035Z,90.41
2023-02-11T09:26:09.840Z,90.16
2023-02-11T09:28:37.944Z,89.76
2023-02-11T09:31:07.840Z,89.77
2023-02-11T09:33:36.655Z,89.44
2023-02-11T09:36:05.970Z,89.06
2023-02-11T09:38:34.038Z,88.54
2023-02-11T09:41:04.123Z,88.30
2023-02-11T09:43:44.265Z,87.69
2023-02-11T09:46:17.461Z,87.04
2023-02-11T09:48:48.305Z,86.82
2023-02-11T09:51:57.580Z,85.78
2023-02-11T09:54:39.232Z,86.12
2023-02-11T09:57:22.855Z,85.75
2023-02-11T09:59:54.356Z,85.50
2023-02-11T10:02:45.072Z,85.27
2023-02-11T10:05:34.431Z,84.75
2023-02-11T10:08:30.031Z,84.15
2023-02-11T10:11:02.947Z,84.82
2023-02-11T10:13:33.821Z,84.58
2023-02-11T10:16:24.329Z,84.22
2023-02-11T10:19:30.245Z,84.29
2023-02-11T10:22:10.230Z,84.31
2023-02-11T10:24:39.362Z,83.76
2023-02-11T10:27:19.703Z,84.19
2023-02-11T10:29:56.951Z,83.75
2023-02-11T10:32:58.916Z,83.48
2023-02-11T10:35:28.043Z,83.33
2023-02-11T10:37:56.282Z,83.02
2023-02-11T10:40:29.768Z,82.84
2023-02-11T10:43:04.733Z,82.68
2023-02-11T10:45:46.099Z,82.48
2023-02-11T10:48:37.604Z,81.91
2023-02-11T10:51:12.833Z,81.78
2023-02-11T10:53:42.823Z,81.43
2023-02-11T10:56:31.188Z,81.02
2023-02-11T10:59:01.972Z,81.04
2023-02-11T11:01:53.563Z,79.96
2023-02-11T11:04:34.136Z,78.93
2023-02-11T11:07:10.963Z,78.60
2023-02-11T11:09:52.436Z,76.93
2023-02-11T11:12:46.101Z,74.95
2023-02-11T11:15:21.865Z,74.01
2023-02-11T11:18:20.958Z,72.46
2023-02-11T11:21:01.336Z,70.77
2023-02-11T11:23:32.392Z,68.58
2023-02-11T11:26:03.622Z,68.13
2023-02-11T11:28:38.963Z,67.74
2023-02-11T11:31:15.214Z,67.00
2023-02-11T11:33:47.598Z,67.33
2023-02-11T11:36:21.127Z,66.67
2023-02-11T11:42:23.976Z,65.17
2023-02-11T11:45:04.744Z,65.37
2023-02-11T11:47:40.070Z,66.11
2023-02-11T11:50:45.215Z,66.98
2023-02-11T11:53:23.302Z,68.01
2023-02-11T11:56:01.608Z,68.26
2023-02-11T11:58:31.048Z,69.35
2023-02-11T12:01:01.653Z,70.10
2023-02-11T12:03:42.343Z,71.01
2023-02-11T12:06:18.911Z,71.20
2023-02-11T12:08:55.629Z,71.69
2023-02-11T12:11:23.154Z,72.15
2023-02-11T12:14:22.213Z,71.50
2023-02-11T12:17:11.769Z,70.89
2023-02-11T12:19:45.270Z,70.95
2023-02-11T12:22:42.020Z,70.13
2023-02-11T12:26:01.060Z,70.00
2023-02-11T12:28:43.633Z,69.55
2023-02-11T12:31:17.231Z,69.41
2023-02-11T12:34:06.596Z,69.86
2023-02-11T12:36:46.940Z,70.57
2023-02-11T12:39:39.429Z,71.12
2023-02-11T12:42:47.002Z,71.68
2023-02-11T12:45:55.561Z,72.41
2023-02-11T12:49:01.092Z,72.90
2023-02-11T12:51:46.565Z,73.40
2023-02-11T12:54:44.897Z,73.53
2023-02-11T12:57:21.474Z,73.71
2023-02-11T12:59:56.592Z,74.27
2023-02-11T13:02:45.749Z,73.81
2023-02-11T13:05:31.890Z,72.35
2023-02-11T13:08:22.591Z,71.14
2023-02-11T13:10:58.027Z,70.89
2023-02-11T13:13:31.700Z,70.49
2023-02-11T13:16:09.384Z,70.79
2023-02-11T13:19:00.609Z,70.42
2023-02-11T13:21:41.612Z,70.76
2023-02-11T13:24:21.220Z,71.41
2023-02-11T13:27:01.773Z,71.47
2023-02-11T13:29:36.619Z,71.80
2023-02-11T13:32:11.919Z,72.14
2023-02-11T13:34:42.442Z,72.21
2023-02-11T13:37:37.442Z,72.21
2023-02-11T13:40:06.949Z,72.83
2023-02-11T13:42:49.824Z,72.68
2023-02-11T13:45:44.826Z,72.65
2023-02-11T13:48:22.447Z,73.02
2023-02-11T13:50:53.670Z,72.91
2023-02-11T13:53:22.339Z,73.01
2023-02-11T13:56:05.192Z,73.19
2023-02-11T13:58:32.738Z,73.49
2023-02-11T14:01:00.302Z,73.48
2023-02-11T14:03:50.528Z,74.03
2023-02-11T14:06:46.276Z,73.29
2023-02-11T14:09:13.816Z,73.48
2023-02-11T14:11:41.773Z,74.12
2023-02-11T14:14:24.021Z,73.71
2023-02-11T14:17:04.717Z,73.44
2023-02-11T14:19:35.377Z,74.02
2023-02-11T14:22:05.959Z,74.07
2023-02-11T14:24:33.523Z,74.24
2023-02-11T14:27:03.946Z,74.29
2023-02-11T14:29:37.591Z,74.61
2023-02-11T14:32:27.118Z,74.51
2023-02-11T14:35:30.815Z,74.73
2023-02-11T14:38:21.956Z,75.10
2023-02-11T14:40:49.830Z,74.91
2023-02-11T14:43:23.062Z,75.54
2023-02-11T14:45:56.004Z,75.58
2023-02-11T14:48:32.349Z,75.78
2023-02-11T14:51:13.688Z,75.49
2023-02-11T14:53:46.901Z,75.55
2023-02-11T14:56:24.749Z,75.39
2023-02-11T14:58:54.067Z,75.87
2023-02-11T15:01:36.093Z,76.33
2023-02-11T15:04:06.633Z,75.75
2023-02-11T15:06:38.336Z,76.28
2023-02-11T15:09:26.965Z,77.03
2023-02-11T15:11:57.417Z,77.12
2023-02-11T15:14:28.632Z,76.84
2023-02-11T15:17:00.427Z,77.43
2023-02-11T15:19:36.062Z,77.77
2023-02-11T15:22:26.076Z,77.46
2023-02-11T15:25:01.500Z,77.30
2023-02-11T15:27:38.715Z,78.03
2023-02-11T15:30:23.306Z,77.64
2023-02-11T15:32:58.832Z,77.69
2023-02-11T15:35:38.195Z,77.77
2023-02-11T15:38:06.143Z,77.46
2023-02-11T15:40:36.233Z,78.01
2023-02-11T15:43:07.106Z,77.99
2023-02-11T15:45:53.654Z,78.03
2023-02-11T15:48:46.594Z,77.67
2023-02-11T15:51:35.119Z,77.49
2023-02-11T15:54:06.592Z,78.38
2023-02-11T15:56:43.438Z,78.23
2023-02-11T15:59:27.441Z,78.24
2023-02-11T16:01:55.566Z,78.49
2023-02-11T16:04:28.053Z,78.67
2023-02-11T16:06:56.195Z,78.43
2023-02-11T16:09:43.074Z,79.23
2023-02-11T16:12:37.071Z,78.98
2023-02-11T16:15:31.042Z,79.46
2023-02-11T16:17:59.007Z,78.89
2023-02-11T16:20:26.799Z,79.70
2023-02-11T16:22:54.802Z,80.12
2023-02-11T16:25:23.640Z,80.08
2023-02-11T16:27:54.749Z,79.76
2023-02-11T16:30:40.627Z,80.02
2023-02-11T16:33:11.072Z,80.44
2023-02-11T16:35:38.857Z,79.75
2023-02-11T16:38:06.475Z,80.21
2023-02-11T16:40:34.139Z,80.62
2023-02-11T16:43:01.743Z,80.26
2023-02-11T16:45:29.681Z,80.22
2023-02-11T16:48:00.766Z,81.04
2023-02-11T16:50:29.448Z,81.10
2023-02-11T16:53:02.188Z,81.31
2023-02-11T16:55:29.927Z,81.14
2023-02-11T16:57:57.823Z,81.16
2023-02-11T17:00:25.438Z,81.45
2023-02-11T17:02:53.234Z,81.54
2023-02-11T17:05:25.220Z,81.65
2023-02-11T17:07:53.126Z,81.87
2023-02-11T17:10:23.108Z,81.79
2023-02-11T17:12:51.626Z,81.52
2023-02-11T17:15:19.356Z,82.26
2023-02-11T17:17:47.077Z,82.38
2023-02-11T17:20:15.510Z,82.03
2023-02-11T17:22:43.228Z,82.27
2023-02-11T17:25:11.366Z,82.47
2023-02-11T17:27:39.154Z,81.88
2023-02-11T17:30:07.822Z,82.43
2023-02-11T17:32:36.772Z,82.44
2023-02-11T17:35:06.998Z,83.07
2023-02-11T17:37:34.616Z,82.25
2023-02-11T17:40:02.393Z,82.51
2023-02-11T17:42:31.351Z,83.04
2023-02-11T17:45:00.110Z,82.82
2023-02-11T17:47:27.728Z,82.44
2023-02-11T17:49:55.552Z,82.92
2023-02-11T17:52:24.419Z,83.72
2023-02-11T17:54:52.048Z,82.89
2023-02-11T17:57:19.669Z,83.50
2023-02-11T17:59:47.426Z,82.64
2023-02-11T18:02:15.141Z,83.50
2023-02-11T18:04:42.915Z,83.41
2023-02-11T18:07:10.608Z,82.80
2023-02-11T18:09:39.799Z,82.77
2023-02-11T18:12:08.530Z,83.91
2023-02-11T18:14:40.484Z,84.23
2023-02-11T18:17:08.498Z,83.65
2023-02-11T18:19:37.677Z,83.78
2023-02-11T18:22:05.421Z,83.74
2023-02-11T18:24:33.168Z,82.98
2023-02-11T18:27:00.860Z,82.89
2023-02-11T18:29:28.493Z,83.34
2023-02-11T18:31:57.158Z,82.81
2023-02-11T18:34:25.702Z,84.27
2023-02-11T18:36:53.363Z,83.01
2023-02-11T18:39:24.279Z,82.99
2023-02-11T18:41:54.753Z,83.13
2023-02-11T18:44:24.849Z,83.37
2023-02-11T18:46:53.156Z,83.69
2023-02-11T18:49:20.843Z,83.59
2023-02-11T18:51:48.650Z,83.57
2023-02-11T18:54:16.342Z,82.88
2023-02-11T18:56:43.994Z,83.54
2023-02-11T18:59:11.592Z,83.12
2023-02-11T19:01:43.319Z,83.01
2023-02-11T19:04:11.552Z,83.48
2023-02-11T19:06:39.288Z,83.53
2023-02-11T19:09:10.355Z,83.79
2023-02-11T19:11:53.976Z,83.38
2023-02-11T19:14:28.478Z,83.53
2023-02-11T19:16:58.619Z,83.04
2023-02-11T19:19:29.063Z,83.71
2023-02-11T19:21:59.468Z,82.97
2023-02-11T19:24:29.109Z,83.75
2023-02-11T19:26:59.688Z,82.95
2023-02-11T19:29:27.807Z,82.99
2023-02-11T19:31:55.704Z,82.93
2023-02-11T19:34:23.601Z,82.82
2023-02-11T19:36:51.192Z,83.59
2023-02-11T19:39:19.007Z,82.97
2023-02-11T19:41:46.754Z,83.18
2023-02-11T19:44:14.517Z,83.13
2023-02-11T19:46:42.367Z,83.34
2023-02-11T19:49:14.437Z,82.98
2023-02-11T19:51:41.993Z,82.81
2023-02-11T19:54:09.511Z,83.63
2023-02-11T19:56:38.532Z,82.59
2023-02-11T19:59:09.037Z,82.91
2023-02-11T20:01:37.281Z,82.26
2023-02-11T20:04:05.629Z,83.18
2023-02-11T20:06:34.333Z,83.10
2023-02-11T20:09:06.488Z,83.26
2023-02-11T20:11:35.281Z,82.84
2023-02-11T20:14:03.434Z,83.16
2023-02-11T20:16:46.872Z,82.36
2023-02-11T20:19:18.648Z,82.29
2023-02-11T20:21:48.549Z,82.46
2023-02-11T20:24:18.351Z,83.08
2023-02-11T20:26:48.626Z,82.55
2023-02-11T20:29:18.124Z,83.05
2023-02-11T20:31:46.216Z,82.62
2023-02-11T20:34:13.932Z,82.56
2023-02-11T20:36:41.672Z,82.95
2023-02-11T20:39:11.586Z,82.24
2023-02-11T20:41:40.115Z,82.60
2023-02-11T20:44:10.696Z,82.89
2023-02-11T20:46:41.914Z,82.23
2023-02-11T20:49:15.550Z,82.31
2023-02-11T20:51:43.491Z,82.04
2023-02-11T20:54:19.580Z,82.28
2023-02-11T20:56:48.612Z,82.44
2023-02-11T20:59:17.674Z,81.81
2023-02-11T21:01:48.480Z,81.52
2023-02-11T21:04:19.407Z,82.34
2023-02-11T21:06:50.057Z,81.79
2023-02-11T21:09:20.199Z,81.84
2023-02-11T21:11:50.108Z,82.01
2023-02-11T21:14:19.040Z,82.45
2023-02-11T21:16:48.350Z,81.78
2023-02-11T21:19:17.658Z,81.79
2023-02-11T21:21:45.526Z,82.62
2023-02-11T21:24:13.156Z,81.90
2023-02-11T21:26:40.791Z,81.78
2023-02-11T21:29:09.025Z,82.60
2023-02-11T21:31:37.098Z,81.90
2023-02-11T21:34:05.210Z,81.58
2023-02-11T21:36:33.311Z,82.25
2023-02-11T21:39:01.943Z,81.57
2023-02-11T21:41:29.580Z,82.11
2023-02-11T21:43:57.216Z,82.40
2023-02-11T21:46:24.941Z,81.15
2023-02-11T21:48:52.849Z,82.17
2023-02-11T21:51:23.539Z,82.17
2023-02-11T21:53:55.696Z,81.72
2023-02-11T21:56:23.692Z,81.73
2023-02-11T21:58:53.590Z,81.96
2023-02-11T22:01:24.738Z,81.45
2023-02-11T22:03:52.417Z,81.48
2023-02-11T22:06:31.001Z,81.87
2023-02-11T22:09:01.720Z,81.83
2023-02-11T22:11:29.307Z,81.24
2023-02-11T22:13:57.996Z,81.39
2023-02-11T22:16:27.453Z,80.89
2023-02-11T22:18:58.722Z,81.38
2023-02-11T22:21:26.819Z,81.44
2023-02-11T22:23:55.495Z,81.58
2023-02-11T22:26:25.169Z,80.83
2023-02-11T22:28:53.821Z,81.19
2023-02-11T22:31:24.736Z,81.37
2023-02-11T22:33:52.684Z,80.96
2023-02-11T22:36:23.284Z,80.66
2023-02-11T22:38:51.501Z,80.19
2023-02-11T22:41:19.808Z,80.19
2023-02-11T22:43:47.510Z,79.60
2023-02-11T22:46:17.902Z,79.59
2023-02-11T22:48:46.246Z,79.80
2023-02-11T22:51:16.635Z,80.03
2023-02-11T22:53:44.650Z,79.56
2023-02-11T22:56:15.574Z,79.25
2023-02-11T22:58:43.743Z,79.36
2023-02-11T23:01:12.840Z,79.63
2023-02-11T23:03:40.634Z,79.86
2023-02-11T23:06:09.514Z,79.95
2023-02-11T23:08:39.684Z,80.13
2023-02-11T23:11:10.140Z,80.01
2023-02-11T23:13:39.521Z,79.88
2023-02-11T23:16:09.927Z,80.25
2023-02-11T23:18:39.199Z,79.62
2023-02-11T23:21:29.310Z,80.42
2023-02-11T23:24:02.225Z,79.32
2023-02-11T23:26:30.678Z,79.39
2023-02-11T23:28:59.051Z,80.15
2023-02-11T23:31:37.602Z,80.04
2023-02-11T23:34:07.188Z,79.60
2023-02-11T23:36:34.870Z,79.25
2023-02-11T23:39:02.915Z,79.47
2023-02-11T23:41:30.605Z,79.83
2023-02-11T23:43:58.228Z,79.13
2023-02-11T23:46:27.334Z,80.31
2023-02-11T23:48:55.209Z,80.15
2023-02-11T23:51:23.557Z,80.08
2023-02-11T23:53:54.237Z,80.02
2023-02-11T23:56:26.212Z,79.85
2023-02-11T23:58:56.154Z,79.39
